createdAt,value
2023-05-03T00:00:53.548Z,2.90
2023-05-03T00:03:24.398Z,3.77
2023-05-03T00:05:51.173Z,2.73
2023-05-03T00:08:17.952Z,3.27
2023-05-03T00:10:44.852Z,3.33
2023-05-03T00:13:11.702Z,2.70
2023-05-03T00:15:43.116Z,3.43
2023-05-03T00:18:09.793Z,2.60
2023-05-03T00:20:39.068Z,2.60
2023-05-03T00:23:06.302Z,6.53
2023-05-03T00:25:33.411Z,2.60
2023-05-03T00:28:00.131Z,3.57
2023-05-03T00:30:26.837Z,5.87
2023-05-03T00:32:53.516Z,5.73
2023-05-03T00:35:25.038Z,5.47
2023-05-03T00:37:52.122Z,3.90
2023-05-03T00:40:19.100Z,3.53
2023-05-03T00:42:50.235Z,2.63
2023-05-03T00:45:21.745Z,4.97
2023-05-03T00:47:48.835Z,5.30
2023-05-03T00:50:18.298Z,4.87
2023-05-03T00:52:45.785Z,4.27
2023-05-03T00:55:12.673Z,4.35
2023-05-03T00:57:41.626Z,3.00
2023-05-03T01:00:13.421Z,4.97
2023-05-03T01:02:40.293Z,3.00
2023-05-03T01:05:07.970Z,2.80
2023-05-03T01:07:45.959Z,5.83
2023-05-03T01:10:13.006Z,3.90
2023-05-03T01:13:02.862Z,3.57
2023-05-03T01:15:58.654Z,3.63
2023-05-03T01:18:33.632Z,2.97
2023-05-03T01:21:01.797Z,3.53
2023-05-03T01:23:33.340Z,4.00
2023-05-03T01:26:17.709Z,8.40
2023-05-03T01:28:44.442Z,6.40
2023-05-03T01:31:13.501Z,4.87
2023-05-03T01:33:49.228Z,4.13
2023-05-03T01:36:36.374Z,6.83
2023-05-03T01:39:09.443Z,3.63
2023-05-03T01:41:38.422Z,3.50
2023-05-03T01:44:08.969Z,3.87
2023-05-03T01:46:44.811Z,2.95
2023-05-03T01:49:14.761Z,2.50
2023-05-03T01:51:43.740Z,2.53
2023-05-03T01:54:16.139Z,5.17
2023-05-03T01:56:42.838Z,3.57
2023-05-03T01:59:09.508Z,2.67
2023-05-03T02:01:36.358Z,2.30
2023-05-03T02:04:03.554Z,2.90
2023-05-03T02:06:30.544Z,2.53
2023-05-03T02:08:59.659Z,2.40
2023-05-03T02:11:28.568Z,4.37
2023-05-03T02:13:55.332Z,2.87
2023-05-03T02:16:22.034Z,3.37
2023-05-03T02:18:51.873Z,4.03
2023-05-03T02:21:18.870Z,2.13
2023-05-03T02:23:46.049Z,2.07
2023-05-03T02:26:14.912Z,2.57
2023-05-03T02:28:41.664Z,2.10
2023-05-03T02:31:11.066Z,2.67
2023-05-03T02:33:38.196Z,2.97
2023-05-03T02:36:05.648Z,3.03
2023-05-03T02:38:32.322Z,3.93
2023-05-03T02:40:59.702Z,5.27
2023-05-03T02:43:26.383Z,3.50
2023-05-03T02:45:53.136Z,6.00
2023-05-03T02:48:20.255Z,4.47
2023-05-03T02:50:51.762Z,6.27
2023-05-03T02:53:18.516Z,2.53
2023-05-03T02:55:47.990Z,4.78
2023-05-03T02:58:15.117Z,3.47
2023-05-03T03:00:45.027Z,2.00
2023-05-03T03:03:11.840Z,1.90
2023-05-03T03:05:41.285Z,2.67
2023-05-03T03:08:08.462Z,2.10
2023-05-03T03:10:35.618Z,3.47
2023-05-03T03:13:04.567Z,2.27
2023-05-03T03:15:31.243Z,2.93
2023-05-03T03:18:01.036Z,2.47
2023-05-03T03:20:28.508Z,2.83
2023-05-03T03:22:55.253Z,3.10
2023-05-03T03:25:22.352Z,3.10
2023-05-03T03:27:49.030Z,3.23
2023-05-03T03:30:18.193Z,2.53
2023-05-03T03:32:45.105Z,4.43
2023-05-03T03:35:12.078Z,7.00
2023-05-03T03:37:39.999Z,4.00
2023-05-03T03:40:08.004Z,2.27
2023-05-03T03:42:36.865Z,3.57
2023-05-03T03:45:04.677Z,3.97
2023-05-03T03:47:33.604Z,4.73
2023-05-03T03:50:02.251Z,2.00
2023-05-03T03:52:29.341Z,10.13
2023-05-03T03:54:58.529Z,5.07
2023-05-03T03:57:29.709Z,5.67
2023-05-03T03:59:57.588Z,4.53
2023-05-03T04:02:24.923Z,7.03
2023-05-03T04:04:51.880Z,6.80
2023-05-03T04:07:18.943Z,9.70
2023-05-03T04:09:45.678Z,6.53
2023-05-03T04:12:14.844Z,11.00
2023-05-03T04:14:41.520Z,6.50
2023-05-03T04:17:10.739Z,3.37
2023-05-03T04:19:38.667Z,6.50
2023-05-03T04:22:06.026Z,6.82
2023-05-03T04:24:33.136Z,11.30
2023-05-03T04:27:04.225Z,4.83
2023-05-03T04:29:33.216Z,11.20
2023-05-03T04:32:02.458Z,11.00
2023-05-03T04:34:31.653Z,2.50
2023-05-03T04:36:58.370Z,10.77
2023-05-03T04:39:25.126Z,14.47
2023-05-03T04:41:54.043Z,4.33
2023-05-03T04:44:21.191Z,5.23
2023-05-03T04:46:52.627Z,7.57
2023-05-03T04:49:21.527Z,8.30
2023-05-03T04:51:48.276Z,5.50
2023-05-03T04:54:16.119Z,4.63
2023-05-03T04:56:43.230Z,10.13
2023-05-03T04:59:10.621Z,5.57
2023-05-03T05:01:37.339Z,5.37
2023-05-03T05:04:06.723Z,5.97
2023-05-03T05:06:33.521Z,11.93
2023-05-03T05:09:02.885Z,12.27
2023-05-03T05:11:29.660Z,17.73
2023-05-03T05:13:56.478Z,3.73
2023-05-03T05:16:25.523Z,3.50
2023-05-03T05:18:52.186Z,10.20
2023-05-03T05:21:21.131Z,7.57
2023-05-03T05:23:47.804Z,16.87
2023-05-03T05:26:17.181Z,31.10
2023-05-03T05:28:43.825Z,49.13
2023-05-03T05:31:10.470Z,39.97
2023-05-03T05:33:41.818Z,46.63
2023-05-03T05:36:11.284Z,37.93
2023-05-03T05:38:37.964Z,27.33
2023-05-03T05:41:05.346Z,22.40
2023-05-03T05:43:33.219Z,28.13
2023-05-03T05:46:08.226Z,26.93
2023-05-03T05:48:35.571Z,20.17
2023-05-03T05:51:02.531Z,25.23
2023-05-03T05:53:29.198Z,29.33
2023-05-03T05:56:00.723Z,33.63
2023-05-03T05:58:29.553Z,46.77
2023-05-03T06:01:01.404Z,21.13
2023-05-03T06:03:28.177Z,31.40
2023-05-03T06:05:55.012Z,19.83
2023-05-03T06:08:22.686Z,21.50
2023-05-03T06:10:53.066Z,21.53
2023-05-03T06:13:22.487Z,25.60
2023-05-03T06:15:49.268Z,23.17
2023-05-03T06:18:16.483Z,12.27
2023-05-03T06:20:43.240Z,15.80
2023-05-03T06:23:10.388Z,18.63
2023-05-03T06:25:37.705Z,14.13
2023-05-03T06:28:08.981Z,11.80
2023-05-03T06:30:40.454Z,19.40
2023-05-03T06:33:08.198Z,15.63
2023-05-03T06:35:34.979Z,11.07
2023-05-03T06:38:04.253Z,12.97
2023-05-03T06:40:30.966Z,23.10
2023-05-03T06:42:57.635Z,30.02
2023-05-03T06:45:24.769Z,27.37
2023-05-03T06:47:51.590Z,34.77
2023-05-03T06:50:20.144Z,16.17
2023-05-03T06:52:46.981Z,27.67
2023-05-03T06:55:13.710Z,20.27
2023-05-03T06:57:43.342Z,40.60
2023-05-03T07:00:12.743Z,14.80
2023-05-03T07:02:39.458Z,17.43
2023-05-03T07:05:07.117Z,17.50
2023-05-03T07:07:34.926Z,9.33
2023-05-03T07:10:01.966Z,9.87
2023-05-03T07:12:29.021Z,9.33
2023-05-03T07:14:58.584Z,12.77
2023-05-03T07:17:25.536Z,9.15
2023-05-03T07:19:53.239Z,10.73
2023-05-03T07:22:24.942Z,14.23
2023-05-03T07:24:59.608Z,14.73
2023-05-03T07:27:26.886Z,7.53
2023-05-03T07:29:53.760Z,9.13
2023-05-03T07:32:25.745Z,9.10
2023-05-03T07:34:52.439Z,9.23
2023-05-03T07:37:19.220Z,14.25
2023-05-03T07:39:48.005Z,10.53
2023-05-03T07:42:16.902Z,12.13
2023-05-03T07:44:43.527Z,45.57
2023-05-03T07:47:10.507Z,91.27
2023-05-03T07:49:40.230Z,102.70
2023-05-03T07:52:06.918Z,81.70
2023-05-03T07:54:34.026Z,46.73
2023-05-03T07:57:03.800Z,85.33
2023-05-03T07:59:30.734Z,75.10
2023-05-03T08:02:00.027Z,49.70
2023-05-03T08:04:28.329Z,84.80
2023-05-03T08:06:55.341Z,74.17
2023-05-03T08:09:24.983Z,66.90
2023-05-03T08:11:51.695Z,55.33
2023-05-03T08:14:18.469Z,52.57
2023-05-03T08:16:45.177Z,35.23
2023-05-03T08:19:14.093Z,28.73
2023-05-03T08:21:40.738Z,49.07
2023-05-03T08:24:10.689Z,30.33
2023-05-03T08:26:37.708Z,17.83
2023-05-03T08:29:04.487Z,15.27
2023-05-03T08:31:31.351Z,19.80
2023-05-03T08:33:58.541Z,15.30
2023-05-03T08:36:27.532Z,18.27
2023-05-03T08:38:54.301Z,24.50
2023-05-03T08:41:31.233Z,16.50
2023-05-03T08:44:01.606Z,15.47
2023-05-03T08:46:29.333Z,16.33
2023-05-03T08:48:57.192Z,15.80
2023-05-03T08:51:25.073Z,18.13
2023-05-03T08:53:54.683Z,33.72
2023-05-03T08:56:25.022Z,25.33
2023-05-03T08:58:51.802Z,25.07
2023-05-03T09:01:21.086Z,26.23
2023-05-03T09:03:53.926Z,21.53
2023-05-03T09:06:27.334Z,8.17
2023-05-03T09:08:56.682Z,15.50
2023-05-03T09:11:35.942Z,9.27
2023-05-03T09:14:12.928Z,9.25
2023-05-03T09:16:44.713Z,12.17
2023-05-03T09:19:15.177Z,17.10
2023-05-03T09:21:45.023Z,8.80
2023-05-03T09:24:19.641Z,8.25
2023-05-03T09:26:49.319Z,7.73
2023-05-03T09:29:30.863Z,9.57
2023-05-03T09:32:02.478Z,20.97
2023-05-03T09:34:29.710Z,17.20
2023-05-03T09:36:56.847Z,16.00
2023-05-03T09:39:23.904Z,19.07
2023-05-03T09:41:53.238Z,18.07
2023-05-03T09:44:20.036Z,11.13
2023-05-03T09:47:05.379Z,11.83
2023-05-03T09:49:37.124Z,7.17
2023-05-03T09:52:04.355Z,11.27
2023-05-03T09:54:37.237Z,15.13
2023-05-03T09:57:05.726Z,7.20
2023-05-03T09:59:39.655Z,11.63
2023-05-03T10:02:08.201Z,29.10
2023-05-03T10:04:47.568Z,23.60
2023-05-03T10:07:21.884Z,19.53
2023-05-03T10:09:48.999Z,13.57
2023-05-03T10:12:18.992Z,10.90
2023-05-03T10:14:52.934Z,7.40
2023-05-03T10:17:46.138Z,17.83
2023-05-03T10:20:27.194Z,13.17
2023-05-03T10:23:08.703Z,13.73
2023-05-03T10:25:37.579Z,12.20
2023-05-03T10:28:04.736Z,9.47
2023-05-03T10:30:35.739Z,33.80
2023-05-03T10:33:14.559Z,41.37
2023-05-03T10:35:54.894Z,28.53
2023-05-03T10:38:24.096Z,23.43
2023-05-03T10:40:52.059Z,7.07
2023-05-03T10:43:30.986Z,16.83
2023-05-03T10:46:00.929Z,16.73
2023-05-03T10:48:33.888Z,60.60
2023-05-03T10:51:37.303Z,27.97
2023-05-03T10:54:04.373Z,32.20
2023-05-03T10:56:33.588Z,22.03
2023-05-03T10:59:02.595Z,9.40
2023-05-03T11:01:32.523Z,20.37
2023-05-03T11:04:05.324Z,12.63
2023-05-03T11:06:36.614Z,5.10
2023-05-03T11:09:08.672Z,3.30
2023-05-03T11:11:39.857Z,5.30
2023-05-03T11:14:08.384Z,32.65
2023-05-03T11:16:36.929Z,23.63
2023-05-03T11:19:03.978Z,18.23
2023-05-03T11:21:31.416Z,15.27
2023-05-03T11:23:59.192Z,8.70
2023-05-03T11:26:28.100Z,7.43
2023-05-03T11:28:54.967Z,14.57
2023-05-03T11:31:24.660Z,8.90
2023-05-03T11:33:51.926Z,20.37
2023-05-03T11:36:21.562Z,18.50
2023-05-03T11:38:48.378Z,14.90
2023-05-03T11:41:17.442Z,15.67
2023-05-03T11:44:00.792Z,6.00
2023-05-03T11:46:37.556Z,28.63
2023-05-03T11:49:04.517Z,155.87
2023-05-03T11:51:33.364Z,349.40
2023-05-03T11:54:17.105Z,418.08
2023-05-03T11:56:54.907Z,192.93
2023-05-03T11:59:37.356Z,165.53
2023-05-03T12:02:06.048Z,157.53
2023-05-03T12:04:33.432Z,100.30
2023-05-03T12:07:04.365Z,92.43
2023-05-03T12:09:31.925Z,101.40
2023-05-03T12:12:02.714Z,52.67
2023-05-03T12:14:59.518Z,53.37
2023-05-03T12:17:38.437Z,52.03
2023-05-03T12:22:58.038Z,34.63
2023-05-03T12:25:28.365Z,16.65
2023-05-03T12:28:17.843Z,11.50
2023-05-03T12:30:47.494Z,61.73
2023-05-03T12:33:16.512Z,56.03
2023-05-03T12:35:47.334Z,50.03
2023-05-03T12:38:16.448Z,5.40
2023-05-03T12:40:45.424Z,5.70
2023-05-03T12:43:12.651Z,10.00
2023-05-03T12:45:46.557Z,6.73
2023-05-03T12:48:16.941Z,5.27
2023-05-03T12:50:46.195Z,6.60
2023-05-03T12:53:17.557Z,5.60
2023-05-03T12:55:45.468Z,4.23
2023-05-03T13:01:35.559Z,8.37
2023-05-03T13:03:43.549Z,13.33
2023-05-03T13:06:14.852Z,6.60
2023-05-03T13:08:50.212Z,6.30
2023-05-03T13:11:19.257Z,15.40
2023-05-03T13:13:46.525Z,13.87
2023-05-03T13:16:16.005Z,5.97
2023-05-03T13:18:46.163Z,5.80
2023-05-03T13:21:33.968Z,7.47
2023-05-03T13:24:00.661Z,10.83
2023-05-03T13:26:29.836Z,5.37
2023-05-03T13:28:56.922Z,6.17
2023-05-03T13:31:28.768Z,14.90
2023-05-03T13:33:56.879Z,59.27
2023-05-03T13:36:24.336Z,42.07
2023-05-03T13:38:51.991Z,15.20
2023-05-03T13:41:19.565Z,12.33
2023-05-03T13:43:49.463Z,16.10
2023-05-03T13:46:16.786Z,4.37
2023-05-03T13:49:05.520Z,4.82
2023-05-03T13:51:32.864Z,3.40
2023-05-03T13:54:03.548Z,6.47
2023-05-03T13:56:30.814Z,22.80
2023-05-03T13:58:59.754Z,9.73
2023-05-03T14:01:31.092Z,4.10
2023-05-03T14:04:00.331Z,5.00
2023-05-03T14:06:27.669Z,4.60
2023-05-03T14:08:56.474Z,13.80
2023-05-03T14:11:24.612Z,11.83
2023-05-03T14:13:56.970Z,4.37
2023-05-03T14:18:58.251Z,9.37
2023-05-03T14:21:25.132Z,5.10
2023-05-03T14:23:55.747Z,4.17
2023-05-03T14:26:29.484Z,3.33
2023-05-03T14:28:59.349Z,5.40
2023-05-03T14:31:26.464Z,7.90
2023-05-03T14:33:53.643Z,4.23
2023-05-03T14:36:20.805Z,4.90
2023-05-03T14:38:47.670Z,3.83
2023-05-03T14:41:16.632Z,3.53
2023-05-03T14:43:43.578Z,5.57
2023-05-03T14:46:12.532Z,3.67
2023-05-03T14:48:39.683Z,2.83
2023-05-03T14:51:06.359Z,2.30
2023-05-03T14:53:33.036Z,2.50
2023-05-03T14:56:00.013Z,4.53
2023-05-03T14:58:27.488Z,2.30
2023-05-03T15:00:56.469Z,2.80
2023-05-03T15:03:23.739Z,4.50
2023-05-03T15:05:52.699Z,2.40
2023-05-03T15:08:22.270Z,3.03
2023-05-03T15:10:52.101Z,2.87
2023-05-03T15:13:19.200Z,3.80
2023-05-03T15:15:46.123Z,5.50
2023-05-03T15:18:14.523Z,10.33
2023-05-03T15:20:43.626Z,3.33
2023-05-03T15:23:10.248Z,2.40
2023-05-03T15:25:37.047Z,3.50
2023-05-03T15:28:04.720Z,2.27
2023-05-03T15:30:36.352Z,15.77
2023-05-03T15:33:05.508Z,23.67
2023-05-03T15:35:32.404Z,5.43
2023-05-03T15:37:59.656Z,4.28
2023-05-03T15:40:28.865Z,11.77
2023-05-03T15:42:55.976Z,5.50
2023-05-03T15:45:26.278Z,5.40
2023-05-03T15:47:53.002Z,3.33
2023-05-03T15:50:19.729Z,5.40
2023-05-03T15:52:46.574Z,15.83
2023-05-03T15:55:13.802Z,4.37
2023-05-03T15:57:41.005Z,3.37
2023-05-03T16:00:09.283Z,2.83
2023-05-03T16:02:36.153Z,4.67
2023-05-03T16:05:03.021Z,4.93
2023-05-03T16:07:30.074Z,3.63
2023-05-03T16:09:59.080Z,8.50
2023-05-03T16:12:30.578Z,8.23
2023-05-03T16:14:59.596Z,15.40
2023-05-03T16:17:26.334Z,4.83
2023-05-03T16:19:53.420Z,2.33
2023-05-03T16:22:20.255Z,6.43
2023-05-03T16:24:51.680Z,5.33
2023-05-03T16:27:18.425Z,7.23
2023-05-03T16:29:48.247Z,2.47
2023-05-03T16:32:15.912Z,22.37
2023-05-03T16:34:42.721Z,3.63
2023-05-03T16:37:10.134Z,5.53
2023-05-03T16:39:36.965Z,4.03
2023-05-03T16:42:08.195Z,4.23
2023-05-03T16:44:36.152Z,3.17
2023-05-03T16:47:06.338Z,2.30
2023-05-03T16:49:36.210Z,2.00
2023-05-03T16:52:03.771Z,3.37
2023-05-03T16:54:33.098Z,4.23
2023-05-03T16:57:02.351Z,30.40
2023-05-03T16:59:29.310Z,8.40
2023-05-03T17:01:56.020Z,4.17
2023-05-03T17:04:23.259Z,21.67
2023-05-03T17:06:49.942Z,7.53
2023-05-03T17:09:19.598Z,2.03
2023-05-03T17:11:51.230Z,7.07
2023-05-03T17:14:17.967Z,15.37
2023-05-03T17:16:46.118Z,5.80
2023-05-03T17:19:12.930Z,5.23
2023-05-03T17:21:42.151Z,3.93
2023-05-03T17:24:08.899Z,8.37
2023-05-03T17:26:35.604Z,7.87
2023-05-03T17:29:02.455Z,2.60
2023-05-03T17:31:31.390Z,3.00
2023-05-03T17:33:58.115Z,2.73
2023-05-03T17:36:29.155Z,3.17
2023-05-03T17:38:58.369Z,2.30
2023-05-03T17:41:29.353Z,2.70
2023-05-03T17:43:56.142Z,4.13
2023-05-03T17:46:23.158Z,2.22
2023-05-03T17:48:49.941Z,4.33
2023-05-03T17:51:19.113Z,4.00
2023-05-03T17:53:45.742Z,2.70
2023-05-03T17:56:16.873Z,2.20
2023-05-03T17:58:47.213Z,2.57
2023-05-03T18:01:15.809Z,2.83
2023-05-03T18:03:43.480Z,18.10
2023-05-03T18:06:13.238Z,8.20
2023-05-03T18:08:41.238Z,5.93
2023-05-03T18:11:08.005Z,2.97
2023-05-03T18:13:35.152Z,7.23
2023-05-03T18:16:06.974Z,10.30
2023-05-03T18:18:36.166Z,4.83
2023-05-03T18:21:06.027Z,30.17
2023-05-03T18:23:33.468Z,121.93
2023-05-03T18:26:00.372Z,106.67
2023-05-03T18:28:27.555Z,242.80
2023-05-03T18:30:55.925Z,183.53
2023-05-03T18:33:25.238Z,94.47
2023-05-03T18:35:53.228Z,93.33
2023-05-03T18:38:25.264Z,59.57
2023-05-03T18:40:52.021Z,59.37
2023-05-03T18:43:18.666Z,30.92
2023-05-03T18:45:45.496Z,18.20
2023-05-03T18:48:12.323Z,25.57
2023-05-03T18:50:42.955Z,19.00
2023-05-03T18:53:13.876Z,13.35
2023-05-03T18:55:41.558Z,5.20
2023-05-03T18:58:10.639Z,4.50
2023-05-03T19:00:37.334Z,5.47
2023-05-03T19:03:05.792Z,20.20
2023-05-03T19:05:32.548Z,14.50
2023-05-03T19:08:01.763Z,13.30
2023-05-03T19:10:31.142Z,10.80
2023-05-03T19:12:58.505Z,8.07
2023-05-03T19:15:27.619Z,6.77
2023-05-03T19:17:56.803Z,3.07
2023-05-03T19:20:25.722Z,6.72
2023-05-03T19:22:52.400Z,3.93
2023-05-03T19:25:21.366Z,2.53
2023-05-03T19:27:48.071Z,5.27
2023-05-03T19:30:19.609Z,3.13
2023-05-03T19:32:48.553Z,3.23
2023-05-03T19:35:17.715Z,6.50
2023-05-03T19:37:44.600Z,5.57
2023-05-03T19:40:12.163Z,3.47
2023-05-03T19:42:41.847Z,2.13
2023-05-03T19:45:09.878Z,3.83
2023-05-03T19:47:37.042Z,4.17
2023-05-03T19:50:06.790Z,4.55
2023-05-03T19:52:34.269Z,2.03
2023-05-03T19:55:07.062Z,2.17
2023-05-03T19:57:37.140Z,4.23
2023-05-03T20:00:07.446Z,3.03
2023-05-03T20:02:36.703Z,2.93
2023-05-03T20:05:08.581Z,2.17
2023-05-03T20:07:35.542Z,7.27
2023-05-03T20:10:02.590Z,2.23
2023-05-03T20:12:34.295Z,4.17
2023-05-03T20:15:01.152Z,2.43
2023-05-03T20:17:28.061Z,2.33
2023-05-03T20:20:08.348Z,2.20
2023-05-03T20:22:35.128Z,1.70
2023-05-03T20:25:03.970Z,3.27
2023-05-03T20:27:33.355Z,3.63
2023-05-03T20:30:00.117Z,2.30
2023-05-03T20:32:29.083Z,2.80
2023-05-03T20:34:57.927Z,2.80
2023-05-03T20:37:24.690Z,2.50
2023-05-03T20:39:51.614Z,3.07
2023-05-03T20:42:18.264Z,3.47
2023-05-03T20:44:45.350Z,2.33
2023-05-03T20:47:14.214Z,2.30
2023-05-03T20:49:40.930Z,3.17
2023-05-03T20:52:10.278Z,1.90
2023-05-03T20:54:37.440Z,2.10
2023-05-03T20:57:08.671Z,2.00
2023-05-03T20:59:35.726Z,3.07
2023-05-03T21:02:02.803Z,2.37
2023-05-03T21:04:29.503Z,1.63
2023-05-03T21:06:56.217Z,1.97
2023-05-03T21:09:24.130Z,2.07
2023-05-03T21:11:50.833Z,1.97
2023-05-03T21:14:18.556Z,3.05
2023-05-03T21:16:45.583Z,2.70
2023-05-03T21:19:12.758Z,2.53
2023-05-03T21:21:42.257Z,2.90
2023-05-03T21:24:09.018Z,2.07
2023-05-03T21:26:35.920Z,2.50
2023-05-03T21:29:03.067Z,2.47
2023-05-03T21:31:32.044Z,2.30
2023-05-03T21:33:58.755Z,2.20
2023-05-03T21:36:25.556Z,2.40
2023-05-03T21:38:54.580Z,3.03
2023-05-03T21:41:21.257Z,2.33
2023-05-03T21:43:49.485Z,2.10
2023-05-03T21:46:16.307Z,3.47
2023-05-03T21:48:43.790Z,1.90
2023-05-03T21:51:18.307Z,2.20
2023-05-03T21:53:47.362Z,2.73
2023-05-03T21:56:15.464Z,2.50
2023-05-03T21:58:44.483Z,2.70
2023-05-03T22:01:16.573Z,3.30
2023-05-03T22:03:43.740Z,2.27
2023-05-03T22:06:13.092Z,1.90
2023-05-03T22:08:40.149Z,2.30
2023-05-03T22:11:07.360Z,2.10
2023-05-03T22:13:49.684Z,2.43
2023-05-03T22:16:24.959Z,3.25
2023-05-03T22:18:51.714Z,2.43
2023-05-03T22:21:18.550Z,2.33
2023-05-03T22:23:45.270Z,2.50
2023-05-03T22:26:12.442Z,3.53
2023-05-03T22:28:39.173Z,2.40
2023-05-03T22:31:06.266Z,2.37
2023-05-03T22:33:33.459Z,2.15
2023-05-03T22:36:02.554Z,2.27
2023-05-03T22:38:31.639Z,3.13
2023-05-03T22:40:58.318Z,3.30
2023-05-03T22:43:27.418Z,2.10
2023-05-03T22:45:54.172Z,2.40
2023-05-03T22:48:21.408Z,2.17
2023-05-03T22:50:48.195Z,2.50
2023-05-03T22:53:17.311Z,2.20
2023-05-03T22:55:43.989Z,2.10
2023-05-03T22:58:12.815Z,2.47
2023-05-03T23:00:40.056Z,2.50
2023-05-03T23:03:09.664Z,2.20
2023-05-03T23:05:36.531Z,2.90
2023-05-03T23:08:03.221Z,2.57
2023-05-03T23:10:29.936Z,2.30
2023-05-03T23:12:56.623Z,3.53
2023-05-03T23:15:23.450Z,2.50
2023-05-03T23:17:52.679Z,2.38
2023-05-03T23:20:22.131Z,3.13
2023-05-03T23:22:51.236Z,2.13
2023-05-03T23:25:17.975Z,2.43
2023-05-03T23:27:44.726Z,2.70
2023-05-03T23:30:14.764Z,2.57
2023-05-03T23:32:41.750Z,3.53
2023-05-03T23:35:09.070Z,2.13
2023-05-03T23:37:38.256Z,3.25
2023-05-03T23:40:06.992Z,5.97
2023-05-03T23:42:33.828Z,2.20
2023-05-03T23:45:00.490Z,2.20
2023-05-03T23:47:29.905Z,2.60
2023-05-03T23:49:56.802Z,2.40
2023-05-03T23:52:23.543Z,2.40
2023-05-03T23:54:50.252Z,2.83
2023-05-03T23:57:16.978Z,2.30
2023-05-03T23:59:46.046Z,4.80
